Terminal Aerodrome Forecast
Issued by NWS Shreveport, LA

Home | Current Version | Previous Version | Text Only | Print | Product List | Glossary On
Versions: 1 2 3 4 5 6 7 8 9 10 11 12 13 14 15
000
FTUS44 KSHV 172300
TAFGGG
TAF
KGGG 172339Z 1800/1824 07004KT P6SM BKN050
     FM180400 VRB03KT P6SM SCT045 BKN080
     FM181500 03006KT P6SM FEW080
     FM181800 03007KT P6SM SCT040=

USA.gov is the U.S. government's official web portal to all federal, state and local government web resources and services.